sensor_id;sensor_type;location;lat;lon;timestamp;P1;durP1;ratioP1;P2;durP2;ratioP2
39442;SDS011;25147;52.142;9.960;2023-07-28T00:00:31;5.88;;;5.47;;
39442;SDS011;25147;52.142;9.960;2023-07-28T00:02:58;6.65;;;6.25;;
39442;SDS011;25147;52.142;9.960;2023-07-28T00:05:25;6.22;;;5.78;;
39442;SDS011;25147;52.142;9.960;2023-07-28T00:07:51;7.05;;;6.47;;
39442;SDS011;25147;52.142;9.960;2023-07-28T00:10:20;6.40;;;5.90;;
39442;SDS011;25147;52.142;9.960;2023-07-28T00:12:47;6.47;;;6.03;;
39442;SDS011;25147;52.142;9.960;2023-07-28T00:15:14;6.28;;;5.88;;
39442;SDS011;25147;52.142;9.960;2023-07-28T00:17:40;6.15;;;5.75;;
39442;SDS011;25147;52.142;9.960;2023-07-28T00:20:10;6.80;;;6.30;;
39442;SDS011;25147;52.142;9.960;2023-07-28T00:22:37;6.32;;;5.93;;
39442;SDS011;25147;52.142;9.960;2023-07-28T00:25:04;6.22;;;5.82;;
39442;SDS011;25147;52.142;9.960;2023-07-28T00:27:33;5.68;;;5.28;;
39442;SDS011;25147;52.142;9.960;2023-07-28T00:29:59;5.82;;;5.38;;
39442;SDS011;25147;52.142;9.960;2023-07-28T00:32:26;5.65;;;5.25;;
39442;SDS011;25147;52.142;9.960;2023-07-28T00:34:55;6.05;;;5.45;;
39442;SDS011;25147;52.142;9.960;2023-07-28T00:37:22;5.88;;;5.45;;
39442;SDS011;25147;52.142;9.960;2023-07-28T00:39:49;6.13;;;5.30;;
39442;SDS011;25147;52.142;9.960;2023-07-28T00:42:15;5.13;;;4.72;;
39442;SDS011;25147;52.142;9.960;2023-07-28T00:44:44;5.63;;;5.22;;
39442;SDS011;25147;52.142;9.960;2023-07-28T00:47:10;5.72;;;5.10;;
39442;SDS011;25147;52.142;9.960;2023-07-28T00:49:37;5.20;;;4.90;;
39442;SDS011;25147;52.142;9.960;2023-07-28T00:52:07;5.80;;;5.40;;
39442;SDS011;25147;52.142;9.960;2023-07-28T00:54:35;6.13;;;5.50;;
39442;SDS011;25147;52.142;9.960;2023-07-28T00:57:02;5.60;;;4.97;;
39442;SDS011;25147;52.142;9.960;2023-07-28T00:59:30;5.50;;;5.20;;
39442;SDS011;25147;52.142;9.960;2023-07-28T01:01:59;5.97;;;5.38;;
39442;SDS011;25147;52.142;9.960;2023-07-28T01:04:25;6.13;;;5.35;;
39442;SDS011;25147;52.142;9.960;2023-07-28T01:06:53;5.43;;;5.03;;
39442;SDS011;25147;52.142;9.960;2023-07-28T01:09:28;5.20;;;4.18;;
39442;SDS011;25147;52.142;9.960;2023-07-28T01:12:00;4.57;;;4.15;;
39442;SDS011;25147;52.142;9.960;2023-07-28T01:14:27;4.53;;;4.22;;
39442;SDS011;25147;52.142;9.960;2023-07-28T01:16:54;4.03;;;3.70;;
39442;SDS011;25147;52.142;9.960;2023-07-28T01:19:22;4.43;;;4.13;;
39442;SDS011;25147;52.142;9.960;2023-07-28T01:21:53;3.97;;;3.50;;
39442;SDS011;25147;52.142;9.960;2023-07-28T01:24:26;3.70;;;3.40;;
39442;SDS011;25147;52.142;9.960;2023-07-28T01:27:03;3.90;;;3.30;;
39442;SDS011;25147;52.142;9.960;2023-07-28T01:29:32;3.50;;;3.28;;
39442;SDS011;25147;52.142;9.960;2023-07-28T01:32:00;3.67;;;3.38;;
39442;SDS011;25147;52.142;9.960;2023-07-28T01:34:27;3.45;;;3.25;;
39442;SDS011;25147;52.142;9.960;2023-07-28T01:36:54;3.70;;;3.50;;
39442;SDS011;25147;52.142;9.960;2023-07-28T01:39:21;3.45;;;3.15;;
39442;SDS011;25147;52.142;9.960;2023-07-28T01:41:48;3.50;;;3.30;;
39442;SDS011;25147;52.142;9.960;2023-07-28T01:44:19;3.03;;;2.83;;
39442;SDS011;25147;52.142;9.960;2023-07-28T01:46:45;3.03;;;2.80;;
39442;SDS011;25147;52.142;9.960;2023-07-28T01:49:12;2.83;;;2.58;;
39442;SDS011;25147;52.142;9.960;2023-07-28T01:51:39;4.03;;;2.60;;
39442;SDS011;25147;52.142;9.960;2023-07-28T01:54:06;2.70;;;2.50;;
39442;SDS011;25147;52.142;9.960;2023-07-28T01:56:33;2.50;;;2.30;;
39442;SDS011;25147;52.142;9.960;2023-07-28T01:58:59;2.40;;;2.20;;
39442;SDS011;25147;52.142;9.960;2023-07-28T02:01:27;2.20;;;2.10;;
39442;SDS011;25147;52.142;9.960;2023-07-28T02:03:54;3.47;;;2.20;;
39442;SDS011;25147;52.142;9.960;2023-07-28T02:06:21;2.50;;;2.30;;
39442;SDS011;25147;52.142;9.960;2023-07-28T02:08:50;2.63;;;1.85;;
39442;SDS011;25147;52.142;9.960;2023-07-28T02:11:17;2.25;;;2.05;;
39442;SDS011;25147;52.142;9.960;2023-07-28T02:13:43;2.97;;;2.00;;
39442;SDS011;25147;52.142;9.960;2023-07-28T02:16:10;2.88;;;2.08;;
39442;SDS011;25147;52.142;9.960;2023-07-28T02:18:39;2.45;;;1.88;;
39442;SDS011;25147;52.142;9.960;2023-07-28T02:21:07;2.00;;;1.90;;
39442;SDS011;25147;52.142;9.960;2023-07-28T02:23:34;2.55;;;2.05;;
39442;SDS011;25147;52.142;9.960;2023-07-28T02:26:01;2.35;;;1.67;;
39442;SDS011;25147;52.142;9.960;2023-07-28T02:28:28;2.17;;;1.67;;
39442;SDS011;25147;52.142;9.960;2023-07-28T02:30:54;2.17;;;1.60;;
39442;SDS011;25147;52.142;9.960;2023-07-28T02:33:21;2.42;;;1.77;;
39442;SDS011;25147;52.142;9.960;2023-07-28T02:35:49;1.70;;;1.60;;
39442;SDS011;25147;52.142;9.960;2023-07-28T02:38:16;1.77;;;1.63;;
39442;SDS011;25147;52.142;9.960;2023-07-28T02:40:43;1.70;;;1.60;;
39442;SDS011;25147;52.142;9.960;2023-07-28T02:43:09;1.50;;;1.40;;
39442;SDS011;25147;52.142;9.960;2023-07-28T02:45:36;1.50;;;1.40;;
39442;SDS011;25147;52.142;9.960;2023-07-28T02:48:03;2.50;;;1.60;;
39442;SDS011;25147;52.142;9.960;2023-07-28T02:50:30;1.52;;;1.30;;
39442;SDS011;25147;52.142;9.960;2023-07-28T02:52:59;1.48;;;1.38;;
39442;SDS011;25147;52.142;9.960;2023-07-28T02:55:25;1.40;;;1.40;;
39442;SDS011;25147;52.142;9.960;2023-07-28T02:57:52;1.25;;;1.25;;
39442;SDS011;25147;52.142;9.960;2023-07-28T03:00:19;1.45;;;1.30;;
39442;SDS011;25147;52.142;9.960;2023-07-28T03:02:46;1.70;;;1.23;;
39442;SDS011;25147;52.142;9.960;2023-07-28T03:05:13;1.35;;;1.35;;
39442;SDS011;25147;52.142;9.960;2023-07-28T03:07:40;1.48;;;1.38;;
39442;SDS011;25147;52.142;9.960;2023-07-28T03:10:08;1.60;;;1.35;;
39442;SDS011;25147;52.142;9.960;2023-07-28T03:12:41;1.30;;;1.30;;
39442;SDS011;25147;52.142;9.960;2023-07-28T03:15:08;2.70;;;1.35;;
39442;SDS011;25147;52.142;9.960;2023-07-28T03:17:35;1.65;;;1.55;;
39442;SDS011;25147;52.142;9.960;2023-07-28T03:20:02;1.67;;;1.58;;
39442;SDS011;25147;52.142;9.960;2023-07-28T03:22:29;1.85;;;1.75;;
39442;SDS011;25147;52.142;9.960;2023-07-28T03:24:56;1.85;;;1.75;;
39442;SDS011;25147;52.142;9.960;2023-07-28T03:27:24;2.38;;;1.90;;
39442;SDS011;25147;52.142;9.960;2023-07-28T03:29:51;1.95;;;1.85;;
39442;SDS011;25147;52.142;9.960;2023-07-28T03:32:17;2.28;;;2.17;;
39442;SDS011;25147;52.142;9.960;2023-07-28T03:34:44;2.38;;;2.20;;
39442;SDS011;25147;52.142;9.960;2023-07-28T03:37:11;2.40;;;2.20;;
39442;SDS011;25147;52.142;9.960;2023-07-28T03:39:37;2.53;;;2.33;;
39442;SDS011;25147;52.142;9.960;2023-07-28T03:42:04;2.70;;;2.50;;
39442;SDS011;25147;52.142;9.960;2023-07-28T03:44:33;2.58;;;2.47;;
39442;SDS011;25147;52.142;9.960;2023-07-28T03:47:03;2.90;;;2.70;;
39442;SDS011;25147;52.142;9.960;2023-07-28T03:49:30;2.72;;;2.35;;
39442;SDS011;25147;52.142;9.960;2023-07-28T03:51:57;2.42;;;2.33;;
39442;SDS011;25147;52.142;9.960;2023-07-28T03:54:24;2.75;;;2.55;;
39442;SDS011;25147;52.142;9.960;2023-07-28T03:56:51;2.22;;;2.13;;
39442;SDS011;25147;52.142;9.960;2023-07-28T03:59:19;2.67;;;2.50;;
39442;SDS011;25147;52.142;9.960;2023-07-28T04:01:47;2.65;;;2.40;;
39442;SDS011;25147;52.142;9.960;2023-07-28T04:04:14;3.72;;;2.20;;
39442;SDS011;25147;52.142;9.960;2023-07-28T04:06:42;2.70;;;2.60;;
39442;SDS011;25147;52.142;9.960;2023-07-28T04:09:10;2.72;;;2.53;;
39442;SDS011;25147;52.142;9.960;2023-07-28T04:11:38;2.35;;;2.25;;
39442;SDS011;25147;52.142;9.960;2023-07-28T04:14:05;2.10;;;2.00;;
39442;SDS011;25147;52.142;9.960;2023-07-28T04:16:31;1.98;;;1.88;;
39442;SDS011;25147;52.142;9.960;2023-07-28T04:19:00;1.90;;;1.80;;
39442;SDS011;25147;52.142;9.960;2023-07-28T04:21:27;2.10;;;2.00;;
39442;SDS011;25147;52.142;9.960;2023-07-28T04:23:54;2.03;;;1.83;;
39442;SDS011;25147;52.142;9.960;2023-07-28T04:26:21;2.15;;;1.95;;
39442;SDS011;25147;52.142;9.960;2023-07-28T04:28:49;2.17;;;1.63;;
39442;SDS011;25147;52.142;9.960;2023-07-28T04:31:16;2.90;;;1.60;;
39442;SDS011;25147;52.142;9.960;2023-07-28T04:33:43;1.40;;;1.30;;
39442;SDS011;25147;52.142;9.960;2023-07-28T04:36:11;1.70;;;1.60;;
39442;SDS011;25147;52.142;9.960;2023-07-28T04:38:38;1.42;;;1.42;;
39442;SDS011;25147;52.142;9.960;2023-07-28T04:41:05;1.48;;;1.38;;
39442;SDS011;25147;52.142;9.960;2023-07-28T04:43:31;1.67;;;1.58;;
39442;SDS011;25147;52.142;9.960;2023-07-28T04:45:58;1.60;;;1.50;;
39442;SDS011;25147;52.142;9.960;2023-07-28T04:48:26;1.52;;;1.45;;
39442;SDS011;25147;52.142;9.960;2023-07-28T04:50:53;1.42;;;1.33;;
39442;SDS011;25147;52.142;9.960;2023-07-28T04:53:22;1.70;;;1.60;;
39442;SDS011;25147;52.142;9.960;2023-07-28T04:55:48;2.75;;;2.17;;
39442;SDS011;25147;52.142;9.960;2023-07-28T04:58:15;2.25;;;1.67;;
39442;SDS011;25147;52.142;9.960;2023-07-28T05:00:42;2.20;;;2.00;;
39442;SDS011;25147;52.142;9.960;2023-07-28T05:03:09;4.60;;;2.13;;
39442;SDS011;25147;52.142;9.960;2023-07-28T05:05:35;2.17;;;2.03;;
39442;SDS011;25147;52.142;9.960;2023-07-28T05:08:02;2.65;;;2.45;;
39442;SDS011;25147;52.142;9.960;2023-07-28T05:10:30;2.50;;;2.40;;
39442;SDS011;25147;52.142;9.960;2023-07-28T05:12:57;2.90;;;2.70;;
39442;SDS011;25147;52.142;9.960;2023-07-28T05:15:24;3.92;;;3.00;;
39442;SDS011;25147;52.142;9.960;2023-07-28T05:17:50;3.08;;;2.85;;
39442;SDS011;25147;52.142;9.960;2023-07-28T05:20:17;3.25;;;2.95;;
39442;SDS011;25147;52.142;9.960;2023-07-28T05:22:44;3.45;;;3.15;;
39442;SDS011;25147;52.142;9.960;2023-07-28T05:25:10;3.33;;;3.10;;
39442;SDS011;25147;52.142;9.960;2023-07-28T05:27:39;3.72;;;3.35;;
39442;SDS011;25147;52.142;9.960;2023-07-28T05:30:07;3.70;;;3.47;;
39442;SDS011;25147;52.142;9.960;2023-07-28T05:32:34;3.95;;;3.63;;
39442;SDS011;25147;52.142;9.960;2023-07-28T05:35:01;4.10;;;3.80;;
39442;SDS011;25147;52.142;9.960;2023-07-28T05:37:28;4.45;;;4.15;;
39442;SDS011;25147;52.142;9.960;2023-07-28T05:39:55;3.95;;;3.65;;
39442;SDS011;25147;52.142;9.960;2023-07-28T05:42:21;3.67;;;3.38;;
39442;SDS011;25147;52.142;9.960;2023-07-28T05:44:50;4.45;;;4.05;;
39442;SDS011;25147;52.142;9.960;2023-07-28T05:47:20;4.18;;;3.92;;
39442;SDS011;25147;52.142;9.960;2023-07-28T05:49:47;4.40;;;4.10;;
39442;SDS011;25147;52.142;9.960;2023-07-28T05:52:13;3.35;;;3.15;;
39442;SDS011;25147;52.142;9.960;2023-07-28T05:54:40;4.00;;;3.70;;
39442;SDS011;25147;52.142;9.960;2023-07-28T05:57:07;4.28;;;3.97;;
39442;SDS011;25147;52.142;9.960;2023-07-28T05:59:34;4.15;;;3.85;;
39442;SDS011;25147;52.142;9.960;2023-07-28T06:02:02;3.92;;;3.63;;
39442;SDS011;25147;52.142;9.960;2023-07-28T06:04:29;3.90;;;3.60;;
39442;SDS011;25147;52.142;9.960;2023-07-28T06:06:56;4.30;;;4.00;;
39442;SDS011;25147;52.142;9.960;2023-07-28T06:09:23;4.25;;;3.95;;
39442;SDS011;25147;52.142;9.960;2023-07-28T06:11:49;4.18;;;3.80;;
39442;SDS011;25147;52.142;9.960;2023-07-28T06:14:16;6.20;;;3.95;;
39442;SDS011;25147;52.142;9.960;2023-07-28T06:16:43;3.50;;;3.20;;
39442;SDS011;25147;52.142;9.960;2023-07-28T06:19:12;3.92;;;3.72;;
39442;SDS011;25147;52.142;9.960;2023-07-28T06:21:39;3.75;;;3.33;;
39442;SDS011;25147;52.142;9.960;2023-07-28T06:24:06;3.33;;;3.13;;
39442;SDS011;25147;52.142;9.960;2023-07-28T06:26:33;3.38;;;3.17;;
39442;SDS011;25147;52.142;9.960;2023-07-28T06:28:59;3.13;;;2.85;;
39442;SDS011;25147;52.142;9.960;2023-07-28T06:31:26;3.63;;;3.40;;
39442;SDS011;25147;52.142;9.960;2023-07-28T06:33:53;3.28;;;3.08;;
39442;SDS011;25147;52.142;9.960;2023-07-28T06:36:21;5.72;;;3.20;;
39442;SDS011;25147;52.142;9.960;2023-07-28T06:38:48;3.33;;;3.13;;
39442;SDS011;25147;52.142;9.960;2023-07-28T06:41:15;4.50;;;3.17;;
39442;SDS011;25147;52.142;9.960;2023-07-28T06:43:42;3.53;;;3.33;;
39442;SDS011;25147;52.142;9.960;2023-07-28T06:46:09;3.60;;;3.40;;
39442;SDS011;25147;52.142;9.960;2023-07-28T06:48:35;3.17;;;2.88;;
39442;SDS011;25147;52.142;9.960;2023-07-28T06:51:02;4.00;;;3.70;;
39442;SDS011;25147;52.142;9.960;2023-07-28T06:53:30;3.70;;;3.50;;
39442;SDS011;25147;52.142;9.960;2023-07-28T06:55:57;3.65;;;3.30;;
39442;SDS011;25147;52.142;9.960;2023-07-28T06:58:24;3.40;;;3.20;;
39442;SDS011;25147;52.142;9.960;2023-07-28T07:00:51;3.33;;;3.13;;
39442;SDS011;25147;52.142;9.960;2023-07-28T07:03:18;3.50;;;3.20;;
39442;SDS011;25147;52.142;9.960;2023-07-28T07:05:45;3.63;;;3.40;;
39442;SDS011;25147;52.142;9.960;2023-07-28T07:08:12;4.38;;;4.07;;
39442;SDS011;25147;52.142;9.960;2023-07-28T07:10:40;4.13;;;3.78;;
39442;SDS011;25147;52.142;9.960;2023-07-28T07:13:13;4.63;;;3.90;;
39442;SDS011;25147;52.142;9.960;2023-07-28T07:15:40;3.80;;;3.58;;
39442;SDS011;25147;52.142;9.960;2023-07-28T07:18:07;3.75;;;3.45;;
39442;SDS011;25147;52.142;9.960;2023-07-28T07:20:34;3.60;;;3.40;;
39442;SDS011;25147;52.142;9.960;2023-07-28T07:23:01;4.25;;;3.95;;
39442;SDS011;25147;52.142;9.960;2023-07-28T07:25:28;4.10;;;3.78;;
39442;SDS011;25147;52.142;9.960;2023-07-28T07:27:56;4.13;;;3.40;;
39442;SDS011;25147;52.142;9.960;2023-07-28T07:30:23;4.47;;;3.95;;
39442;SDS011;25147;52.142;9.960;2023-07-28T07:32:50;4.30;;;4.00;;
39442;SDS011;25147;52.142;9.960;2023-07-28T07:35:17;3.92;;;3.63;;
39442;SDS011;25147;52.142;9.960;2023-07-28T07:37:43;3.92;;;3.72;;
39442;SDS011;25147;52.142;9.960;2023-07-28T07:40:11;6.22;;;3.97;;
39442;SDS011;25147;52.142;9.960;2023-07-28T07:42:40;3.95;;;3.65;;
39442;SDS011;25147;52.142;9.960;2023-07-28T07:45:11;4.30;;;3.90;;
39442;SDS011;25147;52.142;9.960;2023-07-28T07:47:38;4.00;;;3.70;;
39442;SDS011;25147;52.142;9.960;2023-07-28T07:50:06;4.50;;;4.20;;
39442;SDS011;25147;52.142;9.960;2023-07-28T07:52:34;4.05;;;3.75;;
39442;SDS011;25147;52.142;9.960;2023-07-28T07:55:01;4.40;;;4.00;;
39442;SDS011;25147;52.142;9.960;2023-07-28T07:57:28;3.60;;;3.30;;
39442;SDS011;25147;52.142;9.960;2023-07-28T07:59:57;3.67;;;3.40;;
39442;SDS011;25147;52.142;9.960;2023-07-28T08:02:25;3.92;;;3.60;;
39442;SDS011;25147;52.142;9.960;2023-07-28T08:04:52;4.47;;;3.70;;
39442;SDS011;25147;52.142;9.960;2023-07-28T08:07:22;4.13;;;3.60;;
39442;SDS011;25147;52.142;9.960;2023-07-28T08:09:49;3.92;;;3.70;;
39442;SDS011;25147;52.142;9.960;2023-07-28T08:12:16;4.28;;;3.95;;
39442;SDS011;25147;52.142;9.960;2023-07-28T08:14:44;4.20;;;3.88;;
39442;SDS011;25147;52.142;9.960;2023-07-28T08:17:11;3.80;;;3.60;;
39442;SDS011;25147;52.142;9.960;2023-07-28T08:19:40;4.15;;;3.88;;
39442;SDS011;25147;52.142;9.960;2023-07-28T08:22:07;3.90;;;3.70;;
39442;SDS011;25147;52.142;9.960;2023-07-28T08:24:34;3.58;;;3.38;;
39442;SDS011;25147;52.142;9.960;2023-07-28T08:27:01;3.83;;;3.63;;
39442;SDS011;25147;52.142;9.960;2023-07-28T08:29:27;3.58;;;3.38;;
39442;SDS011;25147;52.142;9.960;2023-07-28T08:31:54;3.63;;;3.42;;
39442;SDS011;25147;52.142;9.960;2023-07-28T08:34:21;3.40;;;3.20;;
39442;SDS011;25147;52.142;9.960;2023-07-28T08:36:49;4.32;;;3.50;;
39442;SDS011;25147;52.142;9.960;2023-07-28T08:39:17;3.33;;;3.13;;
39442;SDS011;25147;52.142;9.960;2023-07-28T08:41:43;3.50;;;3.30;;
39442;SDS011;25147;52.142;9.960;2023-07-28T08:44:10;3.88;;;3.67;;
39442;SDS011;25147;52.142;9.960;2023-07-28T08:46:37;3.80;;;3.50;;
39442;SDS011;25147;52.142;9.960;2023-07-28T08:49:04;3.65;;;3.42;;
39442;SDS011;25147;52.142;9.960;2023-07-28T08:51:31;4.15;;;3.67;;
39442;SDS011;25147;52.142;9.960;2023-07-28T08:53:59;3.47;;;3.28;;
39442;SDS011;25147;52.142;9.960;2023-07-28T08:56:26;3.50;;;3.30;;
39442;SDS011;25147;52.142;9.960;2023-07-28T08:58:58;3.55;;;3.35;;
39442;SDS011;25147;52.142;9.960;2023-07-28T09:01:26;3.53;;;3.33;;
39442;SDS011;25147;52.142;9.960;2023-07-28T09:03:53;3.17;;;2.97;;
39442;SDS011;25147;52.142;9.960;2023-07-28T09:08:55;3.38;;;3.17;;
39442;SDS011;25147;52.142;9.960;2023-07-28T09:11:24;4.90;;;4.50;;
39442;SDS011;25147;52.142;9.960;2023-07-28T09:13:53;3.00;;;2.80;;
39442;SDS011;25147;52.142;9.960;2023-07-28T09:16:21;3.28;;;3.08;;
39442;SDS011;25147;52.142;9.960;2023-07-28T09:18:49;3.33;;;2.92;;
39442;SDS011;25147;52.142;9.960;2023-07-28T09:21:18;3.08;;;2.88;;
39442;SDS011;25147;52.142;9.960;2023-07-28T09:23:46;4.40;;;3.28;;
39442;SDS011;25147;52.142;9.960;2023-07-28T09:26:13;3.13;;;2.92;;
39442;SDS011;25147;52.142;9.960;2023-07-28T09:28:42;3.58;;;2.97;;
39442;SDS011;25147;52.142;9.960;2023-07-28T09:31:09;2.90;;;2.75;;
39442;SDS011;25147;52.142;9.960;2023-07-28T09:33:36;2.88;;;2.65;;
39442;SDS011;25147;52.142;9.960;2023-07-28T09:36:08;3.00;;;2.80;;
39442;SDS011;25147;52.142;9.960;2023-07-28T09:38:36;3.30;;;2.85;;
39442;SDS011;25147;52.142;9.960;2023-07-28T09:41:06;2.50;;;2.40;;
39442;SDS011;25147;52.142;9.960;2023-07-28T09:43:34;3.03;;;2.85;;
39442;SDS011;25147;52.142;9.960;2023-07-28T09:46:04;3.33;;;3.08;;
39442;SDS011;25147;52.142;9.960;2023-07-28T09:48:32;3.50;;;3.30;;
39442;SDS011;25147;52.142;9.960;2023-07-28T09:51:02;3.08;;;2.90;;
39442;SDS011;25147;52.142;9.960;2023-07-28T09:53:35;4.50;;;3.08;;
39442;SDS011;25147;52.142;9.960;2023-07-28T09:56:07;3.45;;;3.22;;
39442;SDS011;25147;52.142;9.960;2023-07-28T09:58:36;2.97;;;2.78;;
39442;SDS011;25147;52.142;9.960;2023-07-28T10:01:07;3.10;;;2.78;;
39442;SDS011;25147;52.142;9.960;2023-07-28T10:03:34;3.28;;;3.08;;
39442;SDS011;25147;52.142;9.960;2023-07-28T10:06:01;3.55;;;3.25;;
39442;SDS011;25147;52.142;9.960;2023-07-28T10:08:28;3.85;;;3.17;;
39442;SDS011;25147;52.142;9.960;2023-07-28T10:10:56;3.13;;;2.92;;
39442;SDS011;25147;52.142;9.960;2023-07-28T10:13:23;3.42;;;3.22;;
39442;SDS011;25147;52.142;9.960;2023-07-28T10:15:52;3.08;;;2.88;;
39442;SDS011;25147;52.142;9.960;2023-07-28T10:18:20;3.70;;;3.10;;
39442;SDS011;25147;52.142;9.960;2023-07-28T10:20:48;3.13;;;2.92;;
39442;SDS011;25147;52.142;9.960;2023-07-28T10:23:17;2.83;;;2.63;;
39442;SDS011;25147;52.142;9.960;2023-07-28T10:25:56;4.13;;;3.20;;
39442;SDS011;25147;52.142;9.960;2023-07-28T10:28:25;3.78;;;3.58;;
39442;SDS011;25147;52.142;9.960;2023-07-28T10:30:54;3.63;;;3.42;;
39442;SDS011;25147;52.142;9.960;2023-07-28T10:33:32;3.75;;;3.55;;
39442;SDS011;25147;52.142;9.960;2023-07-28T10:36:14;4.15;;;3.95;;
39442;SDS011;25147;52.142;9.960;2023-07-28T10:39:12;4.05;;;3.63;;
39442;SDS011;25147;52.142;9.960;2023-07-28T10:42:03;4.40;;;4.10;;
39442;SDS011;25147;52.142;9.960;2023-07-28T10:44:34;3.97;;;3.67;;
39442;SDS011;25147;52.142;9.960;2023-07-28T10:47:04;4.10;;;3.67;;
39442;SDS011;25147;52.142;9.960;2023-07-28T10:49:49;4.25;;;3.85;;
39442;SDS011;25147;52.142;9.960;2023-07-28T10:52:21;4.32;;;4.00;;
39442;SDS011;25147;52.142;9.960;2023-07-28T10:54:55;4.50;;;4.10;;
39442;SDS011;25147;52.142;9.960;2023-07-28T10:57:23;4.10;;;3.78;;
39442;SDS011;25147;52.142;9.960;2023-07-28T10:59:55;5.63;;;5.22;;
39442;SDS011;25147;52.142;9.960;2023-07-28T11:02:30;4.55;;;3.95;;
39442;SDS011;25147;52.142;9.960;2023-07-28T11:05:09;3.38;;;3.17;;
39442;SDS011;25147;52.142;9.960;2023-07-28T11:07:40;3.95;;;3.53;;
39442;SDS011;25147;52.142;9.960;2023-07-28T11:10:11;4.35;;;4.05;;
39442;SDS011;25147;52.142;9.960;2023-07-28T11:16:13;4.07;;;3.78;;
39442;SDS011;25147;52.142;9.960;2023-07-28T11:19:31;4.45;;;4.10;;
39442;SDS011;25147;52.142;9.960;2023-07-28T11:26:21;3.47;;;3.28;;
39442;SDS011;25147;52.142;9.960;2023-07-28T11:29:08;3.53;;;3.25;;
39442;SDS011;25147;52.142;9.960;2023-07-28T11:31:41;3.33;;;3.13;;
39442;SDS011;25147;52.142;9.960;2023-07-28T11:37:15;3.15;;;2.95;;
39442;SDS011;25147;52.142;9.960;2023-07-28T11:39:43;3.17;;;2.97;;
39442;SDS011;25147;52.142;9.960;2023-07-28T11:45:16;3.67;;;3.38;;
39442;SDS011;25147;52.142;9.960;2023-07-28T11:54:46;3.70;;;3.40;;
39442;SDS011;25147;52.142;9.960;2023-07-28T11:57:45;3.65;;;3.35;;
39442;SDS011;25147;52.142;9.960;2023-07-28T12:00:20;3.50;;;3.30;;
39442;SDS011;25147;52.142;9.960;2023-07-28T12:06:33;3.13;;;2.72;;
39442;SDS011;25147;52.142;9.960;2023-07-28T12:09:20;3.10;;;2.90;;
39442;SDS011;25147;52.142;9.960;2023-07-28T12:11:57;3.47;;;3.28;;
39442;SDS011;25147;52.142;9.960;2023-07-28T12:17:35;3.22;;;3.03;;
39442;SDS011;25147;52.142;9.960;2023-07-28T12:20:09;3.17;;;2.88;;
39442;SDS011;25147;52.142;9.960;2023-07-28T12:26:50;3.28;;;3.08;;
39442;SDS011;25147;52.142;9.960;2023-07-28T12:29:17;3.67;;;3.10;;
39442;SDS011;25147;52.142;9.960;2023-07-28T12:37:39;3.40;;;3.20;;
39442;SDS011;25147;52.142;9.960;2023-07-28T12:40:59;3.35;;;3.10;;
39442;SDS011;25147;52.142;9.960;2023-07-28T12:43:37;4.05;;;3.10;;
39442;SDS011;25147;52.142;9.960;2023-07-28T12:46:06;2.65;;;2.45;;
39442;SDS011;25147;52.142;9.960;2023-07-28T12:52:29;3.10;;;2.90;;
39442;SDS011;25147;52.142;9.960;2023-07-28T12:55:04;3.45;;;3.25;;
39442;SDS011;25147;52.142;9.960;2023-07-28T13:00:33;3.47;;;3.28;;
39442;SDS011;25147;52.142;9.960;2023-07-28T13:07:09;3.20;;;3.00;;
39442;SDS011;25147;52.142;9.960;2023-07-28T13:09:50;2.85;;;2.65;;
39442;SDS011;25147;52.142;9.960;2023-07-28T13:16:47;3.00;;;2.80;;
39442;SDS011;25147;52.142;9.960;2023-07-28T13:19:16;3.55;;;2.83;;
39442;SDS011;25147;52.142;9.960;2023-07-28T13:22:22;3.88;;;2.72;;
39442;SDS011;25147;52.142;9.960;2023-07-28T13:24:56;4.10;;;2.75;;
39442;SDS011;25147;52.142;9.960;2023-07-28T13:27:28;3.33;;;3.05;;
39442;SDS011;25147;52.142;9.960;2023-07-28T13:30:20;3.08;;;2.80;;
39442;SDS011;25147;52.142;9.960;2023-07-28T13:33:22;2.95;;;2.50;;
39442;SDS011;25147;52.142;9.960;2023-07-28T13:39:11;2.92;;;2.60;;
39442;SDS011;25147;52.142;9.960;2023-07-28T13:45:06;2.80;;;2.60;;
39442;SDS011;25147;52.142;9.960;2023-07-28T13:51:17;2.75;;;2.50;;
39442;SDS011;25147;52.142;9.960;2023-07-28T13:54:20;2.40;;;2.20;;
39442;SDS011;25147;52.142;9.960;2023-07-28T13:56:54;2.25;;;2.15;;
39442;SDS011;25147;52.142;9.960;2023-07-28T13:59:32;3.90;;;3.60;;
39442;SDS011;25147;52.142;9.960;2023-07-28T14:06:08;3.35;;;2.85;;
39442;SDS011;25147;52.142;9.960;2023-07-28T14:13:21;3.25;;;3.05;;
39442;SDS011;25147;52.142;9.960;2023-07-28T14:19:47;3.00;;;2.80;;
39442;SDS011;25147;52.142;9.960;2023-07-28T14:22:17;3.53;;;3.00;;
39442;SDS011;25147;52.142;9.960;2023-07-28T14:24:44;3.08;;;2.88;;
39442;SDS011;25147;52.142;9.960;2023-07-28T14:31:01;3.28;;;2.97;;
39442;SDS011;25147;52.142;9.960;2023-07-28T14:37:34;3.22;;;2.95;;
39442;SDS011;25147;52.142;9.960;2023-07-28T14:40:07;3.00;;;2.80;;
39442;SDS011;25147;52.142;9.960;2023-07-28T14:42:34;2.75;;;2.63;;
39442;SDS011;25147;52.142;9.960;2023-07-28T14:45:01;3.80;;;3.50;;
39442;SDS011;25147;52.142;9.960;2023-07-28T14:47:30;3.42;;;3.22;;
39442;SDS011;25147;52.142;9.960;2023-07-28T14:49:59;5.65;;;4.05;;
39442;SDS011;25147;52.142;9.960;2023-07-28T14:52:50;4.90;;;4.07;;
39442;SDS011;25147;52.142;9.960;2023-07-28T15:00:32;4.90;;;4.50;;
39442;SDS011;25147;52.142;9.960;2023-07-28T15:04:15;3.90;;;3.60;;
39442;SDS011;25147;52.142;9.960;2023-07-28T15:06:55;4.22;;;3.92;;
39442;SDS011;25147;52.142;9.960;2023-07-28T15:09:28;6.18;;;4.18;;
39442;SDS011;25147;52.142;9.960;2023-07-28T15:15:09;4.90;;;4.50;;
39442;SDS011;25147;52.142;9.960;2023-07-28T15:17:54;5.80;;;5.30;;
39442;SDS011;25147;52.142;9.960;2023-07-28T15:50:43;6.80;;;6.20;;
39442;SDS011;25147;52.142;9.960;2023-07-28T15:53:10;5.80;;;5.40;;
39442;SDS011;25147;52.142;9.960;2023-07-28T15:55:44;5.80;;;5.30;;
39442;SDS011;25147;52.142;9.960;2023-07-28T15:58:14;6.65;;;6.15;;
39442;SDS011;25147;52.142;9.960;2023-07-28T16:00:49;6.15;;;5.75;;
39442;SDS011;25147;52.142;9.960;2023-07-28T16:03:23;5.80;;;5.40;;
39442;SDS011;25147;52.142;9.960;2023-07-28T16:05:55;6.43;;;6.03;;
39442;SDS011;25147;52.142;9.960;2023-07-28T16:08:30;6.45;;;5.95;;
39442;SDS011;25147;52.142;9.960;2023-07-28T16:10:57;6.75;;;5.97;;
39442;SDS011;25147;52.142;9.960;2023-07-28T16:13:24;6.85;;;6.25;;
39442;SDS011;25147;52.142;9.960;2023-07-28T16:15:56;6.43;;;6.03;;
39442;SDS011;25147;52.142;9.960;2023-07-28T16:18:23;6.20;;;5.80;;
39442;SDS011;25147;52.142;9.960;2023-07-28T16:21:00;6.32;;;5.72;;
39442;SDS011;25147;52.142;9.960;2023-07-28T16:23:33;6.47;;;6.07;;
39442;SDS011;25147;52.142;9.960;2023-07-28T16:26:23;6.72;;;6.13;;
39442;SDS011;25147;52.142;9.960;2023-07-28T16:29:24;6.85;;;6.25;;
39442;SDS011;25147;52.142;9.960;2023-07-28T16:32:05;7.40;;;6.78;;
39442;SDS011;25147;52.142;9.960;2023-07-28T16:34:35;7.38;;;6.88;;
39442;SDS011;25147;52.142;9.960;2023-07-28T16:37:03;8.93;;;8.23;;
39442;SDS011;25147;52.142;9.960;2023-07-28T16:39:30;8.52;;;7.95;;
39442;SDS011;25147;52.142;9.960;2023-07-28T16:41:57;7.57;;;7.07;;
39442;SDS011;25147;52.142;9.960;2023-07-28T16:44:24;8.25;;;7.65;;
39442;SDS011;25147;52.142;9.960;2023-07-28T16:46:51;8.00;;;7.40;;
39442;SDS011;25147;52.142;9.960;2023-07-28T16:49:17;8.80;;;8.00;;
39442;SDS011;25147;52.142;9.960;2023-07-28T16:51:50;8.65;;;8.05;;
39442;SDS011;25147;52.142;9.960;2023-07-28T16:54:19;8.77;;;8.18;;
39442;SDS011;25147;52.142;9.960;2023-07-28T16:56:46;9.48;;;8.77;;
39442;SDS011;25147;52.142;9.960;2023-07-28T16:59:13;9.40;;;8.55;;
39442;SDS011;25147;52.142;9.960;2023-07-28T17:01:41;10.45;;;8.63;;
39442;SDS011;25147;52.142;9.960;2023-07-28T17:04:07;8.88;;;8.20;;
39442;SDS011;25147;52.142;9.960;2023-07-28T17:06:37;9.23;;;8.55;;
39442;SDS011;25147;52.142;9.960;2023-07-28T17:09:08;12.48;;;9.85;;